Ana Sayfa
METAR-TAF:

METAR-TAF

Havaalanları :

East London, Güney Afrika

Enlem: 33-02S, Boylam: 027-50E, yükseklik: 125 m

Güncel hava durumu gözlemi

Rapor saat 12:00 UTC de 11 dakika önce yapıldı.
Rüzgar güneybatıdan 18 kt
Sıcaklık 20°C
Nem 73%
Basınç 1020 hPa
Görüş mesafesi 10 km veya daha fazla
1500 m altında bulut yok ve kümülonimbus yok

METAR: FAEL 271200Z 23018KT CAVOK 20/15 Q1020

Saat: 14:11 (12:11 UTC)

Tahmin

Rapor saat 09:00 UTC de 3 saat ve 11 dakika önce yapıldı.
Ayın 27'si saat 10 UTC'den ayın 27'si saat 19 UTC'ye kadar geçerli Tahmin
Rüzgar batı/güneybatıdan 20 kt ve 30 kt'a kadar ani rüzgarlar
Görüş mesafesi 10 km veya daha fazla
2000 ft yükseklikte parçalı çok bulutlu
Geçici
ayın 27'si saat 15 UTC'den ayın 27'si saat 18 UTC'ye kadar
sağanak yağmurlar

TAF: FAEL 270900Z 2710/2719 25020G30KT 9999 BKN020 TX22/2710Z TN17/2719Z TEMPO 2715/2718 SHRA

4.000'den fazla havaalanı için hava durumu gözlemleri ve tahminleri (METAR ve TAF raporları).

Kullanılabilir istasyonlar harita üzerinde sarı ve kırmızı noktalarla gösterilir.

İstasyonun adını görmek için fareyi noktanın üzerinde gezdirin.

Sonrasında hava gözlem ve tahminlerini görmek için tıklayın.

Haritayı değiştirmek için: yaklaştırmak için siyah artı işaretli yeşil düğmeye ve uzaklaştırmak için de eksi işaretli düğmeye hızla tıklayın; bitişik haritalar için yeşil okları kullanın.


METAR-TAF: